createdAt,value
2019-06-08T00:00:16.388Z,69.4
2019-06-08T00:01:14.516Z,69.7
2019-06-08T00:02:14.845Z,69.4
2019-06-08T00:03:14.973Z,69.3
2019-06-08T00:04:16.645Z,69.8
2019-06-08T00:05:17.105Z,69.6
2019-06-08T00:08:21.116Z,69.5
2019-06-08T00:09:24.011Z,69.8
2019-06-08T00:10:25.962Z,70
2019-06-08T00:11:23.690Z,70.3
2019-06-08T00:12:24.449Z,70.3
2019-06-08T00:13:25.864Z,69.7
2019-06-08T00:14:27.275Z,69.4
2019-06-08T00:15:28.656Z,68.9
2019-06-08T00:16:30.065Z,68.7
2019-06-08T00:17:39.286Z,69.3
2019-06-08T00:18:32.686Z,69.7
2019-06-08T00:19:34.079Z,69
2019-06-08T00:20:35.471Z,68.3
2019-06-08T00:21:36.869Z,68.5
2019-06-08T00:27:43.372Z,68.9
2019-06-08T00:28:44.807Z,69
2019-06-08T00:29:46.194Z,67.9
2019-06-08T00:30:47.603Z,68.3
2019-06-08T00:31:48.987Z,68.1
2019-06-08T00:34:52.108Z,68.5
2019-06-08T00:35:53.507Z,68.3
2019-06-08T00:36:54.893Z,68.2
2019-06-08T00:37:56.307Z,68.2
2019-06-08T00:38:57.720Z,68
2019-06-08T00:39:59.115Z,67.6
2019-06-08T00:41:00.503Z,68
2019-06-08T00:42:01.912Z,67.6
2019-06-08T00:43:02.676Z,67.3
2019-06-08T00:44:04.105Z,68
2019-06-08T00:45:05.489Z,67.8
2019-06-08T00:46:06.895Z,67.6
2019-06-08T00:47:08.286Z,67.6
2019-06-08T00:48:09.681Z,67.5
2019-06-08T00:49:11.115Z,67.6
2019-06-08T00:51:13.905Z,67.4
2019-06-08T00:52:15.299Z,67.4
2019-06-08T00:53:15.607Z,67
2019-06-08T00:54:17.725Z,67.6
2019-06-08T00:55:17.655Z,67.7
2019-06-08T00:56:19.804Z,67.5
2019-06-08T00:57:20.237Z,67.5
2019-06-08T00:59:22.612Z,67.9
2019-06-08T01:00:24.718Z,67.1
2019-06-08T01:01:28.323Z,67.7
2019-06-08T01:02:26.993Z,67.9
2019-06-08T01:03:26.739Z,67.9
2019-06-08T01:04:29.290Z,66.5
2019-06-08T01:05:30.389Z,66.5
2019-06-08T01:07:31.910Z,66.2
2019-06-08T01:08:33.293Z,65.6
2019-06-08T01:11:36.975Z,65.6
2019-06-08T01:12:38.385Z,66.1
2019-06-08T01:15:41.428Z,65
2019-06-08T01:16:42.819Z,65.4
2019-06-08T01:17:44.217Z,66
2019-06-08T01:18:45.345Z,65.8
2019-06-08T01:19:46.737Z,66.1
2019-06-08T01:20:48.161Z,66
2019-06-08T01:21:49.563Z,66.1
2019-06-08T01:22:50.947Z,65.3
2019-06-08T01:23:51.813Z,65.6
2019-06-08T01:24:53.237Z,66.5
2019-06-08T01:25:54.644Z,66.2
2019-06-08T01:26:56.029Z,65.8
2019-06-08T01:27:57.425Z,65.6
2019-06-08T01:28:58.822Z,65.9
2019-06-08T01:30:00.242Z,66.5
2019-06-08T01:31:01.627Z,66.5
2019-06-08T01:35:05.838Z,65.8
2019-06-08T01:36:07.217Z,66
2019-06-08T01:37:08.615Z,65.6
2019-06-08T01:38:10.018Z,66.1
2019-06-08T01:39:11.401Z,65.8
2019-06-08T01:40:12.811Z,64.8
2019-06-08T01:41:14.199Z,65.3
2019-06-08T01:43:16.596Z,66.1
2019-06-08T01:44:17.384Z,66.5
2019-06-08T01:45:18.688Z,65.7
2019-06-08T01:46:20.073Z,66.5
2019-06-08T01:48:22.513Z,66.2
2019-06-08T01:49:24.136Z,66.1
2019-06-08T01:52:26.820Z,66.5
2019-06-08T01:54:31.538Z,65.8
2019-06-08T01:56:31.362Z,66.3
2019-06-08T01:57:31.775Z,65.7
2019-06-08T01:58:33.631Z,66
2019-06-08T02:00:41.918Z,66.6
2019-06-08T02:01:36.253Z,65.9
2019-06-08T02:03:38.781Z,66.5
2019-06-08T02:04:39.542Z,67.3
2019-06-08T02:05:40.953Z,67.3
2019-06-08T02:06:42.363Z,66.5
2019-06-08T02:07:43.775Z,66.5
2019-06-08T02:08:45.162Z,66.3
2019-06-08T02:09:46.563Z,66.9
2019-06-08T02:10:47.977Z,67
2019-06-08T02:12:50.492Z,66.8
2019-06-08T02:13:51.886Z,67.1
2019-06-08T02:15:54.270Z,66.2
2019-06-08T02:16:55.664Z,66.4
2019-06-08T02:17:57.064Z,66.4
2019-06-08T02:18:58.450Z,66.4
2019-06-08T02:19:59.841Z,66.7
2019-06-08T02:21:01.256Z,66.8
2019-06-08T02:22:02.643Z,67
2019-06-08T02:23:04.046Z,66.9
2019-06-08T02:24:05.431Z,66.5
2019-06-08T02:25:06.218Z,66.1
2019-06-08T02:26:07.635Z,66.4
2019-06-08T02:27:09.031Z,67
2019-06-08T02:28:10.426Z,67.1
2019-06-08T02:29:11.829Z,67
2019-06-08T02:30:13.229Z,67
2019-06-08T02:32:15.791Z,66.8
2019-06-08T02:33:17.191Z,67
2019-06-08T02:34:18.597Z,66.9
2019-06-08T02:35:19.352Z,67.2
2019-06-08T02:36:20.752Z,67.4
2019-06-08T02:37:22.185Z,67.5
2019-06-08T02:39:23.985Z,66.9
2019-06-08T02:42:31.061Z,67.5
2019-06-08T02:43:29.130Z,67.2
2019-06-08T02:44:32.070Z,67.2
2019-06-08T02:45:31.951Z,67.5
2019-06-08T02:46:32.853Z,66.9
2019-06-08T02:48:35.285Z,67.4
2019-06-08T02:50:35.214Z,66.5
2019-06-08T02:51:38.118Z,66.7
2019-06-08T02:52:38.279Z,66.7
2019-06-08T02:53:38.558Z,67.4
2019-06-08T02:54:41.127Z,67.1
2019-06-08T02:55:39.584Z,67.5
2019-06-08T02:56:41.304Z,67.4
2019-06-08T02:57:40.660Z,67
2019-06-08T02:58:42.063Z,67.2
2019-06-08T02:59:43.464Z,67.7
2019-06-08T03:05:49.893Z,67.8
2019-06-08T03:06:51.311Z,67.1
2019-06-08T03:11:57.240Z,68.1
2019-06-08T03:12:58.621Z,68.5
2019-06-08T03:16:01.468Z,68.8
2019-06-08T03:17:02.873Z,68.5
2019-06-08T03:18:04.251Z,67.8
2019-06-08T03:19:22.999Z,68
2019-06-08T03:20:06.349Z,68.1
2019-06-08T03:26:13.530Z,67.6
2019-06-08T03:28:15.310Z,68.2
2019-06-08T03:29:16.708Z,68.4
2019-06-08T03:30:20.128Z,68.4
2019-06-08T03:31:19.671Z,67.7
2019-06-08T03:33:22.230Z,68
2019-06-08T03:34:22.910Z,67.7
2019-06-08T03:35:24.298Z,68
2019-06-08T03:36:25.106Z,68.5
2019-06-08T03:37:26.501Z,68.7
2019-06-08T03:38:27.417Z,67.9
2019-06-08T03:39:28.000Z,67.7
2019-06-08T03:40:28.696Z,66.6
2019-06-08T03:41:29.569Z,66.5
2019-06-08T03:42:30.389Z,66.5
2019-06-08T03:43:31.815Z,66.9
2019-06-08T03:44:36.076Z,66.5
2019-06-08T03:45:34.441Z,66.7
2019-06-08T03:47:38.986Z,66.6
2019-06-08T03:48:40.090Z,66.3
2019-06-08T03:49:56.241Z,65.8
2019-06-08T03:50:41.985Z,66.3
2019-06-08T03:51:48.271Z,65.2
2019-06-08T03:53:45.001Z,65.1
2019-06-08T03:54:46.603Z,65
2019-06-08T03:55:47.303Z,64.5
2019-06-08T03:56:46.152Z,64.7
2019-06-08T03:58:48.348Z,64.6
2019-06-08T03:59:48.022Z,64.6
2019-06-08T04:00:49.375Z,65.2
2019-06-08T04:01:50.153Z,64.8
2019-06-08T04:05:53.338Z,64.6
2019-06-08T04:06:54.112Z,64
2019-06-08T04:07:55.532Z,64.1
2019-06-08T04:08:56.937Z,64.6
2019-06-08T04:09:58.333Z,63.3
2019-06-08T04:10:59.737Z,63.9
2019-06-08T04:12:01.135Z,64
2019-06-08T04:14:03.737Z,64.2
2019-06-08T04:15:04.553Z,64.4
2019-06-08T04:16:05.943Z,63.8
2019-06-08T04:17:06.780Z,63.6
2019-06-08T04:18:08.169Z,64.2
2019-06-08T04:21:11.846Z,63.6
2019-06-08T04:29:20.579Z,65
2019-06-08T04:30:21.983Z,64.4
2019-06-08T04:31:23.390Z,64.2
2019-06-08T04:34:27.066Z,64.2
2019-06-08T04:35:28.469Z,64
2019-06-08T04:36:29.864Z,64.5
2019-06-08T04:37:30.623Z,64.1
2019-06-08T04:38:32.016Z,63.9
2019-06-08T04:40:34.215Z,63.4
2019-06-08T04:41:35.624Z,63.3
2019-06-08T04:42:36.898Z,63.9
2019-06-08T04:43:40.307Z,63.4
2019-06-08T04:44:41.027Z,63.6
2019-06-08T04:45:43.416Z,63.7
2019-06-08T04:47:43.644Z,64.1
2019-06-08T04:48:45.124Z,64
2019-06-08T04:49:44.908Z,65.2
2019-06-08T04:51:47.561Z,65.3
2019-06-08T04:52:47.333Z,64.7
2019-06-08T04:53:49.427Z,64.6
2019-06-08T04:54:49.952Z,64.5
2019-06-08T04:55:49.555Z,64.5
2019-06-08T04:57:51.115Z,64.8
2019-06-08T04:59:52.669Z,63.9
2019-06-08T05:02:56.081Z,64
2019-06-08T05:04:58.646Z,64.4
2019-06-08T05:06:00.049Z,64.3
2019-06-08T05:07:01.451Z,64.8
2019-06-08T05:08:02.380Z,65.1
2019-06-08T05:09:03.778Z,64.9
2019-06-08T05:11:06.325Z,64.5
2019-06-08T05:12:07.728Z,65
2019-06-08T05:14:10.262Z,64.8
2019-06-08T05:16:15.687Z,65.1
2019-06-08T05:17:14.043Z,65.7
2019-06-08T05:18:14.868Z,66.3
2019-06-08T05:19:16.260Z,66.4
2019-06-08T05:21:18.272Z,65.5
2019-06-08T05:22:19.739Z,65
2019-06-08T05:23:21.117Z,65.5
2019-06-08T05:25:23.673Z,66.7
2019-06-08T05:26:25.071Z,66.8
2019-06-08T05:27:26.469Z,67.1
2019-06-08T05:28:27.229Z,66.8
2019-06-08T05:29:27.815Z,66.3
2019-06-08T05:30:29.243Z,66.5
2019-06-08T05:31:30.634Z,66.6
2019-06-08T05:32:32.092Z,66
2019-06-08T05:33:33.450Z,65.8
2019-06-08T05:35:35.532Z,65.1
2019-06-08T05:41:42.097Z,66.6
2019-06-08T05:42:45.665Z,66.5
2019-06-08T05:44:45.827Z,66.3
2019-06-08T05:45:46.245Z,66.1
2019-06-08T05:46:48.080Z,66.1
2019-06-08T05:47:49.981Z,65.9
2019-06-08T05:48:50.503Z,67
2019-06-08T05:49:50.193Z,67.8
2019-06-08T05:51:04.320Z,67.2
2019-06-08T05:51:51.721Z,66
2019-06-08T05:52:53.116Z,66
2019-06-08T05:53:54.505Z,66.6
2019-06-08T05:54:55.171Z,67.5
2019-06-08T05:55:56.598Z,66.8
2019-06-08T06:00:09.352Z,66.7
2019-06-08T06:01:01.686Z,66.8
2019-06-08T06:02:03.083Z,66.6
2019-06-08T06:03:04.463Z,66.4
2019-06-08T06:04:05.863Z,67
2019-06-08T06:05:07.330Z,67.4
2019-06-08T06:06:08.753Z,66.9
2019-06-08T06:09:11.746Z,66.8
2019-06-08T06:11:14.298Z,67
2019-06-08T06:12:15.685Z,66.9
2019-06-08T06:13:17.085Z,66.6
2019-06-08T06:14:18.498Z,66.5
2019-06-08T06:15:19.911Z,66.5
2019-06-08T06:16:21.306Z,66.6
2019-06-08T06:17:22.693Z,67.6
2019-06-08T06:18:24.142Z,67.2
2019-06-08T06:19:24.895Z,67.6
2019-06-08T06:20:26.343Z,67.5
2019-06-08T06:21:30.337Z,67.6
2019-06-08T06:22:28.674Z,67.7
2019-06-08T06:23:30.070Z,68.1
2019-06-08T06:24:31.466Z,68.2
2019-06-08T06:25:32.929Z,68.5
2019-06-08T06:26:34.298Z,68.5
2019-06-08T06:29:37.024Z,67.3
2019-06-08T06:32:39.878Z,67.5
2019-06-08T06:33:42.154Z,67.2
2019-06-08T06:37:50.301Z,66.9
2019-06-08T06:39:46.110Z,67.1
2019-06-08T06:41:49.994Z,67.2
2019-06-08T06:42:50.189Z,67.1
2019-06-08T06:46:54.010Z,68.4
2019-06-08T06:47:55.409Z,68.6
2019-06-08T06:49:57.286Z,68.7
2019-06-08T06:50:58.684Z,69.1
2019-06-08T06:52:00.103Z,69.1
2019-06-08T06:53:01.502Z,67.8
2019-06-08T06:54:02.929Z,67.2
2019-06-08T06:55:04.309Z,67.5
2019-06-08T06:57:06.866Z,67
2019-06-08T06:58:08.266Z,66.5
2019-06-08T06:59:09.658Z,66.7
2019-06-08T07:00:10.412Z,66.3
2019-06-08T07:01:11.804Z,66
2019-06-08T07:05:16.618Z,66.8
2019-06-08T07:07:19.174Z,67.2
2019-06-08T07:08:20.567Z,68.2
2019-06-08T07:09:21.966Z,68.9
2019-06-08T07:11:24.042Z,68.9
2019-06-08T07:12:25.458Z,67.8
2019-06-08T07:14:27.995Z,67.3
2019-06-08T07:15:29.385Z,67.2
2019-06-08T07:16:34.323Z,66.6
2019-06-08T07:17:31.636Z,66.2
2019-06-08T07:19:34.175Z,66.1
2019-06-08T07:20:34.936Z,65.8
2019-06-08T07:22:37.611Z,67.5
2019-06-08T07:23:38.001Z,67.9
2019-06-08T07:24:39.388Z,66.9
2019-06-08T07:25:40.816Z,66.5
2019-06-08T07:26:41.455Z,65.4
2019-06-08T07:27:42.929Z,65.5
2019-06-08T07:29:44.524Z,66
2019-06-08T07:30:46.296Z,67.1
2019-06-08T07:31:49.913Z,67.2
2019-06-08T07:35:51.498Z,65.7
2019-06-08T07:36:51.443Z,65.5
2019-06-08T07:37:53.730Z,65.2
2019-06-08T07:38:53.534Z,65.1
2019-06-08T07:39:53.837Z,64.5
2019-06-08T07:41:01.681Z,65.1
2019-06-08T07:41:56.163Z,66.2
2019-06-08T07:42:57.648Z,66.2
2019-06-08T07:43:59.041Z,66
2019-06-08T07:47:02.747Z,65.1
2019-06-08T07:48:04.159Z,65.1
2019-06-08T07:49:05.548Z,65
2019-06-08T07:53:09.648Z,65.8
2019-06-08T07:54:11.035Z,66.8
2019-06-08T07:55:12.454Z,67.6
2019-06-08T07:58:16.135Z,65.1
2019-06-08T07:59:17.537Z,65.2
2019-06-08T08:00:18.613Z,65.8
2019-06-08T08:01:36.621Z,66.7
2019-06-08T08:02:19.923Z,67.2
2019-06-08T08:03:21.350Z,66.8
2019-06-08T08:04:22.738Z,66.1
2019-06-08T08:05:24.167Z,67.1
2019-06-08T08:06:25.559Z,66.8
2019-06-08T08:07:26.972Z,65.3
2019-06-08T08:10:30.628Z,66.2
2019-06-08T08:11:31.416Z,64.3
2019-06-08T08:13:33.954Z,64.8
2019-06-08T08:14:40.879Z,64.7
2019-06-08T08:16:37.337Z,65.9
2019-06-08T08:17:38.755Z,66.4
2019-06-08T08:18:40.182Z,65.9
2019-06-08T08:21:43.267Z,66
2019-06-08T08:22:44.006Z,66.5
2019-06-08T08:23:47.715Z,67.4
2019-06-08T08:24:53.754Z,67.6
2019-06-08T08:25:48.921Z,67.3
2019-06-08T08:26:52.638Z,68
2019-06-08T08:27:52.330Z,67.5
2019-06-08T08:28:55.087Z,68.2
2019-06-08T08:31:54.119Z,67.9
2019-06-08T08:32:59.586Z,68.2
2019-06-08T08:34:05.434Z,68.6
2019-06-08T08:35:02.822Z,70.3
2019-06-08T08:36:02.073Z,69.2
2019-06-08T08:37:09.322Z,68.2
2019-06-08T08:39:02.731Z,67.5
2019-06-08T08:40:02.697Z,66.7
2019-06-08T08:41:10.795Z,68.1
2019-06-08T08:44:04.963Z,67.7
2019-06-08T08:45:08.497Z,67.9
2019-06-08T08:48:27.467Z,68.1
2019-06-08T08:49:12.992Z,66.6
2019-06-08T08:50:07.630Z,67.5
2019-06-08T08:51:09.023Z,67.8
2019-06-08T08:52:11.794Z,68.1
2019-06-08T08:53:11.739Z,68.3
2019-06-08T08:54:13.235Z,68.5
2019-06-08T08:55:14.325Z,67.5
2019-06-08T08:56:18.271Z,67.4
2019-06-08T08:57:18.306Z,67.9
2019-06-08T08:58:18.855Z,64.8
2019-06-08T09:00:19.367Z,65
2019-06-08T09:01:20.771Z,64.4
2019-06-08T09:02:21.866Z,64.7
2019-06-08T09:03:33.846Z,65.3
2019-06-08T09:04:23.740Z,65.3
2019-06-08T09:05:24.902Z,65
2019-06-08T09:06:28.299Z,65
2019-06-08T09:07:27.777Z,64.8
2019-06-08T09:08:30.184Z,64.5
2019-06-08T09:09:29.835Z,64.5
2019-06-08T09:10:31.227Z,63.4
2019-06-08T09:11:32.403Z,62.8
2019-06-08T09:15:38.043Z,63.3
2019-06-08T09:19:40.800Z,63.2
2019-06-08T09:20:42.301Z,62.5
2019-06-08T09:21:43.127Z,62.3
2019-06-08T09:24:48.752Z,63
2019-06-08T09:25:48.558Z,63
2019-06-08T09:26:48.477Z,62.9
2019-06-08T09:29:54.856Z,62.9
2019-06-08T09:30:52.305Z,61.9
2019-06-08T09:31:54.090Z,61.2
2019-06-08T09:33:00.896Z,61
2019-06-08T09:34:14.396Z,61.5
2019-06-08T09:35:04.385Z,61.9
2019-06-08T09:36:04.498Z,61.7
2019-06-08T09:37:03.546Z,61.1
2019-06-08T09:40:03.891Z,62
2019-06-08T09:41:05.663Z,61.2
2019-06-08T09:42:05.388Z,60.4
2019-06-08T09:43:13.295Z,60.4
2019-06-08T09:44:11.670Z,61.2
2019-06-08T09:47:12.912Z,62.6
2019-06-08T09:48:09.639Z,61.6
2019-06-08T09:51:11.744Z,61.3
2019-06-08T09:52:12.841Z,61.5
2019-06-08T09:53:36.552Z,62.8
2019-06-08T09:54:14.543Z,62.5
2019-06-08T09:55:14.937Z,62.5
2019-06-08T09:56:15.136Z,61.4
2019-06-08T09:57:19.074Z,60.5
2019-06-08T09:58:18.390Z,61.1
2019-06-08T09:59:19.309Z,60.2
2019-06-08T10:00:28.860Z,60.1
2019-06-08T10:01:20.273Z,61.8
2019-06-08T10:03:22.592Z,59.8
2019-06-08T10:04:31.344Z,60.8
2019-06-08T10:05:24.850Z,61.3
2019-06-08T10:06:25.785Z,60.4
2019-06-08T10:07:31.483Z,59.6
2019-06-08T10:08:28.533Z,59.8
2019-06-08T10:11:31.193Z,58.3
2019-06-08T10:12:32.242Z,57.2
2019-06-08T10:13:33.382Z,57.3
2019-06-08T10:14:34.317Z,56.7
2019-06-08T10:15:35.740Z,56.8
2019-06-08T10:16:38.379Z,58.6
2019-06-08T10:17:38.016Z,58.8
2019-06-08T10:19:39.505Z,56.8
2019-06-08T10:20:40.914Z,56.9
2019-06-08T10:21:43.476Z,57.2
2019-06-08T10:23:44.754Z,56.6
2019-06-08T10:24:49.300Z,56.7
2019-06-08T10:25:48.423Z,57.2
2019-06-08T10:26:47.944Z,56.8
2019-06-08T10:27:48.318Z,57.7
2019-06-08T10:28:51.452Z,57.7
2019-06-08T10:29:50.209Z,57.5
2019-06-08T10:30:51.614Z,56.6
2019-06-08T10:31:53.101Z,56.5
2019-06-08T10:34:01.602Z,57.1
2019-06-08T10:35:02.245Z,57.2
2019-06-08T10:36:03.177Z,56.9
2019-06-08T10:37:11.955Z,57.4
2019-06-08T10:38:06.891Z,57.5
2019-06-08T10:39:10.394Z,57.5
2019-06-08T10:40:05.574Z,57.1
2019-06-08T10:42:09.727Z,56.5
2019-06-08T10:43:08.997Z,57.6
2019-06-08T10:44:13.162Z,57.1
2019-06-08T10:46:18.223Z,56.7
2019-06-08T10:49:05.869Z,56.7
2019-06-08T10:51:10.375Z,56.5
2019-06-08T11:00:24.218Z,57.6
2019-06-08T11:02:19.044Z,56.9
2019-06-08T11:03:17.383Z,56.3
2019-06-08T11:06:21.109Z,56
2019-06-08T11:09:24.340Z,56.4
2019-06-08T11:10:25.075Z,55.7
2019-06-08T11:11:28.604Z,55.6
2019-06-08T11:12:28.550Z,54.9
2019-06-08T11:14:30.028Z,54.4
2019-06-08T11:15:31.428Z,55.3
2019-06-08T11:16:32.034Z,55.9
2019-06-08T11:17:32.771Z,55.2
2019-06-08T11:18:34.165Z,55.1
2019-06-08T11:19:37.926Z,54.8
2019-06-08T11:26:42.975Z,56.6
2019-06-08T11:27:44.384Z,57
2019-06-08T11:30:48.244Z,55.6
2019-06-08T11:31:51.225Z,56.4
2019-06-08T11:32:49.678Z,55.8
2019-06-08T11:33:51.076Z,56.2
2019-06-08T11:34:54.739Z,56.5
2019-06-08T11:36:54.018Z,58.3
2019-06-08T11:38:00.230Z,58.8
2019-06-08T11:39:58.050Z,57.7
2019-06-08T11:41:04.530Z,57.4
2019-06-08T11:42:00.554Z,57.8
2019-06-08T11:43:02.258Z,57.3
2019-06-08T11:44:05.045Z,57.1
2019-06-08T11:45:04.610Z,58.3
2019-06-08T11:46:06.408Z,56.8
2019-06-08T11:48:06.636Z,55.9
2019-06-08T11:49:14.969Z,56
2019-06-08T11:54:36.969Z,57.3
2019-06-08T11:55:13.413Z,56.7
2019-06-08T11:56:14.795Z,57.1
2019-06-08T11:58:23.035Z,56.5
2019-06-08T11:59:17.929Z,56.8
2019-06-08T12:00:30.875Z,56.7
2019-06-08T12:03:16.301Z,56.3
2019-06-08T12:07:20.469Z,55
2019-06-08T12:13:28.066Z,56.4
2019-06-08T12:14:28.197Z,56.9
2019-06-08T12:16:30.039Z,57.1
2019-06-08T12:19:33.289Z,56.3
2019-06-08T12:20:34.692Z,57
2019-06-08T12:21:36.086Z,57.5
2019-06-08T12:22:40.171Z,57.6
2019-06-08T12:24:42.816Z,57.6
2019-06-08T12:25:40.156Z,56.8
2019-06-08T12:27:42.679Z,56.7
2019-06-08T12:28:43.317Z,56.4
2019-06-08T12:29:43.911Z,56.3
2019-06-08T12:30:44.575Z,56.8
2019-06-08T12:34:48.966Z,56.8
2019-06-08T12:35:50.361Z,56.4
2019-06-08T12:37:52.437Z,56.4
2019-06-08T12:38:53.408Z,56.1
2019-06-08T12:39:54.793Z,56.5
2019-06-08T12:41:58.464Z,55.3
2019-06-08T12:42:59.805Z,55.3
2019-06-08T12:43:58.490Z,55.7
2019-06-08T12:47:01.531Z,56.4
2019-06-08T12:49:04.096Z,56
2019-06-08T12:50:04.771Z,55.7
2019-06-08T12:51:11.366Z,56.4
2019-06-08T12:52:12.399Z,56.6
2019-06-08T12:54:13.019Z,55.1
2019-06-08T12:57:13.478Z,55.3
2019-06-08T12:59:18.371Z,56.8
2019-06-08T13:00:11.958Z,56.2
2019-06-08T13:01:12.661Z,55.3
2019-06-08T13:02:21.981Z,55.7
2019-06-08T13:03:13.077Z,56.4
2019-06-08T13:04:13.917Z,55.8
2019-06-08T13:05:21.047Z,56.8
2019-06-08T13:06:18.499Z,56.2
2019-06-08T13:07:17.125Z,56.3
2019-06-08T13:09:20.721Z,55.7
2019-06-08T13:11:21.534Z,55.2
2019-06-08T13:14:23.534Z,55.3
2019-06-08T13:15:24.932Z,54.7
2019-06-08T13:18:27.764Z,54.3
2019-06-08T13:19:29.185Z,54.1
2019-06-08T13:20:30.588Z,55.3
2019-06-08T13:21:35.802Z,54.9
2019-06-08T13:22:32.697Z,55
2019-06-08T13:23:33.327Z,55.3
2019-06-08T13:24:34.594Z,55.1
2019-06-08T13:25:44.002Z,55.3
2019-06-08T13:26:37.395Z,54.5
2019-06-08T13:28:39.294Z,55.7
2019-06-08T13:29:40.725Z,56
2019-06-08T13:30:41.872Z,55.6
2019-06-08T13:33:45.403Z,56.1
2019-06-08T13:34:50.301Z,55.1
2019-06-08T13:35:48.173Z,55
2019-06-08T13:36:48.698Z,54.6
2019-06-08T13:37:50.097Z,55.2
2019-06-08T13:40:53.477Z,54.3
2019-06-08T13:41:54.232Z,55.1
2019-06-08T13:42:58.111Z,54.8
2019-06-08T13:43:58.317Z,55.2
2019-06-08T13:50:02.474Z,55.5
2019-06-08T13:51:03.804Z,54.3
2019-06-08T13:52:05.099Z,54.4
2019-06-08T13:53:05.799Z,54.3
2019-06-08T13:54:12.759Z,54.5
2019-06-08T13:55:08.163Z,56.2
2019-06-08T13:56:08.706Z,56.6
2019-06-08T13:58:10.208Z,55.3
2019-06-08T13:59:11.453Z,55.2
2019-06-08T14:00:13.515Z,55.4
2019-06-08T14:01:13.526Z,55.8
2019-06-08T14:02:13.799Z,56.6
2019-06-08T14:03:20.075Z,55.5
2019-06-08T14:04:20.644Z,55.5
2019-06-08T14:05:27.438Z,56.1
2019-06-08T14:06:21.745Z,55.8
2019-06-08T14:08:24.086Z,56.2
2019-06-08T14:09:23.283Z,56.3
2019-06-08T14:10:24.103Z,55.8
2019-06-08T14:13:34.326Z,54.4
2019-06-08T14:14:28.735Z,55.1
2019-06-08T14:15:28.338Z,55.4
2019-06-08T14:16:29.950Z,54.8
2019-06-08T14:17:28.293Z,55.1
2019-06-08T14:22:32.748Z,54.5
2019-06-08T14:23:34.053Z,53.9
2019-06-08T14:24:37.578Z,53.7
2019-06-08T14:25:56.353Z,54.4
2019-06-08T14:30:40.868Z,56.1
2019-06-08T14:31:42.161Z,54.9
2019-06-08T14:32:43.552Z,54.8
2019-06-08T14:36:49.072Z,55.4
2019-06-08T14:37:49.470Z,55.7
2019-06-08T14:38:50.890Z,55.7
2019-06-08T14:40:52.646Z,56.6
2019-06-08T14:41:53.286Z,55.8
2019-06-08T14:42:54.680Z,55.7
2019-06-08T14:50:02.320Z,55.7
2019-06-08T14:52:03.959Z,55.4
2019-06-08T14:53:05.102Z,53.3
2019-06-08T14:55:08.239Z,54.5
2019-06-08T14:56:09.251Z,53.8
2019-06-08T14:57:09.642Z,53
2019-06-08T14:59:11.942Z,54.3
2019-06-08T15:01:13.682Z,53.9
2019-06-08T15:02:17.624Z,54.2
2019-06-08T15:03:19.685Z,54.6
2019-06-08T15:04:26.649Z,53.4
2019-06-08T15:05:19.944Z,53.5
2019-06-08T15:10:23.308Z,54.2
2019-06-08T15:12:23.866Z,54.2
2019-06-08T15:13:28.169Z,54.7
2019-06-08T15:14:29.198Z,54.6
2019-06-08T15:15:32.012Z,54.4
2019-06-08T15:16:32.785Z,54
2019-06-08T15:17:32.051Z,53.7
2019-06-08T15:18:31.950Z,53.3
2019-06-08T15:20:30.846Z,53
2019-06-08T15:21:33.231Z,53.3
2019-06-08T15:22:33.617Z,51.7
2019-06-08T15:23:34.207Z,52
2019-06-08T15:24:38.061Z,52.5
2019-06-08T15:25:38.859Z,52.7
2019-06-08T15:26:45.982Z,53.5
2019-06-08T15:32:43.606Z,53.7
2019-06-08T15:33:45.065Z,53.1
2019-06-08T15:34:51.054Z,53.1
2019-06-08T15:35:47.936Z,53.5
2019-06-08T15:37:50.490Z,53.3
2019-06-08T15:38:51.623Z,53.6
2019-06-08T15:39:53.015Z,53.2
2019-06-08T15:40:57.789Z,53.3
2019-06-08T15:41:54.613Z,54.2
2019-06-08T15:42:55.468Z,54
2019-06-08T15:48:01.408Z,53.1
2019-06-08T15:51:03.425Z,53.3
2019-06-08T15:52:04.819Z,53.4
2019-06-08T15:57:10.772Z,53.2
2019-06-08T15:58:12.187Z,52.7
2019-06-08T15:59:13.425Z,52.9
2019-06-08T16:00:14.815Z,53.3
2019-06-08T16:01:15.796Z,53.5
2019-06-08T16:02:17.199Z,53.2
2019-06-08T16:03:18.812Z,53.2
2019-06-08T16:04:19.395Z,53
2019-06-08T16:09:26.132Z,53.9
2019-06-08T16:10:26.505Z,54.1
2019-06-08T16:12:28.528Z,53.9
2019-06-08T16:13:28.616Z,53.8
2019-06-08T16:14:28.985Z,53.1
2019-06-08T16:15:31.127Z,53.5
2019-06-08T16:16:35.194Z,53.6
2019-06-08T16:17:33.717Z,53.6
2019-06-08T16:18:34.127Z,53.6
2019-06-08T16:21:37.146Z,54.2
2019-06-08T16:22:38.536Z,54.3
2019-06-08T16:28:45.856Z,54.1
2019-06-08T16:29:47.253Z,54.1
2019-06-08T16:30:48.645Z,53.9
2019-06-08T16:31:48.937Z,54.2
2019-06-08T16:32:50.327Z,54.4
2019-06-08T16:33:51.755Z,54.6
2019-06-08T16:37:56.539Z,54.1
2019-06-08T16:38:57.945Z,54.5
2019-06-08T16:39:59.354Z,54.2
2019-06-08T16:41:00.757Z,54.4
2019-06-08T16:42:02.275Z,54.5
2019-06-08T16:43:02.659Z,54.7
2019-06-08T16:45:05.193Z,54.9
2019-06-08T16:46:06.584Z,54.9
2019-06-08T16:48:09.141Z,55.1
2019-06-08T16:49:10.541Z,55
2019-06-08T16:50:25.136Z,55
2019-06-08T16:51:12.433Z,54.8
2019-06-08T16:52:13.195Z,54.3
2019-06-08T16:53:14.645Z,54.9
2019-06-08T16:54:16.046Z,55.3
2019-06-08T16:55:17.435Z,55
2019-06-08T16:56:19.051Z,55.1
2019-06-08T16:59:21.701Z,55.3
2019-06-08T17:03:26.177Z,55.5
2019-06-08T17:04:26.973Z,55.2
2019-06-08T17:06:29.523Z,55
2019-06-08T17:08:39.002Z,55.3
2019-06-08T17:09:34.373Z,55.5
2019-06-08T17:10:34.762Z,55.9
2019-06-08T17:11:35.294Z,55.7
2019-06-08T17:12:37.195Z,55.7
2019-06-08T17:14:40.487Z,55.3
2019-06-08T17:15:40.663Z,55.3
2019-06-08T17:16:41.051Z,55
2019-06-08T17:17:42.445Z,54.9
2019-06-08T17:18:43.853Z,55.1
2019-06-08T17:19:45.255Z,55.6
2019-06-08T17:20:46.647Z,55.6
2019-06-08T17:21:48.045Z,55.7
2019-06-08T17:24:51.085Z,56
2019-06-08T17:25:52.488Z,56.1
2019-06-08T17:26:53.878Z,56.2
2019-06-08T17:27:55.275Z,56
2019-06-08T17:29:57.068Z,56.3
2019-06-08T17:31:58.878Z,56.1
2019-06-08T17:43:10.058Z,56.2
2019-06-08T17:44:11.502Z,55.6
2019-06-08T17:45:12.867Z,55.9
2019-06-08T17:46:14.310Z,55.8
2019-06-08T17:49:17.896Z,55.9
2019-06-08T17:50:19.297Z,56.3
2019-06-08T17:51:20.691Z,57.1
2019-06-08T17:52:22.105Z,56.6
2019-06-08T17:53:22.744Z,56.6
2019-06-08T17:54:24.293Z,56.3
2019-06-08T17:55:25.783Z,56.5
2019-06-08T17:56:27.182Z,56.5
2019-06-08T17:57:52.550Z,56.2
2019-06-08T17:58:29.334Z,56.3
2019-06-08T17:59:30.440Z,56.3
2019-06-08T18:00:31.834Z,56.7
2019-06-08T18:01:35.943Z,56.9
2019-06-08T18:02:33.915Z,57
2019-06-08T18:05:42.378Z,57.5
2019-06-08T18:07:42.234Z,57.9
2019-06-08T18:08:43.367Z,58.1
2019-06-08T18:09:41.964Z,58.1
2019-06-08T18:11:45.004Z,58
2019-06-08T18:14:47.811Z,58.5
2019-06-08T18:16:47.812Z,58.6
2019-06-08T18:17:48.482Z,58.7
2019-06-08T18:18:48.211Z,58.6
2019-06-08T18:19:49.962Z,58.7
2019-06-08T18:20:52.351Z,58.6
2019-06-08T18:22:51.382Z,58.5
2019-06-08T18:23:52.430Z,58.6
2019-06-08T18:24:53.826Z,58.7
2019-06-08T18:25:55.249Z,58.7
2019-06-08T18:26:58.753Z,58.7
2019-06-08T18:28:59.262Z,59
2019-06-08T18:30:11.589Z,58.9
2019-06-08T18:31:02.089Z,59
2019-06-08T18:35:07.854Z,59.2
2019-06-08T18:36:07.837Z,59.1
2019-06-08T18:37:08.636Z,59.1
2019-06-08T18:41:10.962Z,59.1
2019-06-08T18:43:13.094Z,59.2
2019-06-08T18:49:19.250Z,60.2
2019-06-08T18:50:19.890Z,60.3
2019-06-08T18:51:21.286Z,60.6
2019-06-08T18:54:23.875Z,60.5
2019-06-08T18:55:28.012Z,61.2
2019-06-08T18:56:27.728Z,61.8
2019-06-08T19:00:30.516Z,63.3
2019-06-08T19:01:31.460Z,63
2019-06-08T19:02:32.515Z,62.9
2019-06-08T19:03:33.147Z,62.9
2019-06-08T19:04:34.208Z,63
2019-06-08T19:06:41.152Z,63.1
2019-06-08T19:07:37.131Z,63.3
2019-06-08T19:08:43.790Z,64.1
2019-06-08T19:09:42.319Z,64
2019-06-08T19:10:42.666Z,64.8
2019-06-08T19:13:44.514Z,65.8
2019-06-08T19:15:53.217Z,66
2019-06-08T19:16:54.930Z,65.9
2019-06-08T19:18:53.027Z,64.3
2019-06-08T19:19:52.712Z,64.6
2019-06-08T19:20:53.853Z,64.4
2019-06-08T19:23:56.126Z,63.6
2019-06-08T19:24:56.888Z,63.4
2019-06-08T19:26:00.668Z,63.4
2019-06-08T19:30:01.886Z,64.9
2019-06-08T19:31:03.286Z,64.9
2019-06-08T19:34:07.776Z,65.7
2019-06-08T19:36:08.770Z,66.2
2019-06-08T19:37:10.444Z,66.2
2019-06-08T19:39:12.318Z,66.3
2019-06-08T19:40:13.068Z,66.5
2019-06-08T19:41:14.488Z,67.1
2019-06-08T19:42:17.712Z,67
2019-06-08T19:43:18.760Z,67
2019-06-08T19:44:18.517Z,67
2019-06-08T19:45:18.840Z,67
2019-06-08T19:46:20.300Z,66.7
2019-06-08T19:47:21.418Z,67.5
2019-06-08T19:48:22.831Z,67.6
2019-06-08T19:49:24.459Z,67.3
2019-06-08T19:50:28.034Z,67.3
2019-06-08T19:51:28.306Z,67.2
2019-06-08T19:52:26.753Z,67.4
2019-06-08T19:53:28.828Z,67.4
2019-06-08T19:54:29.229Z,67.7
2019-06-08T19:56:31.157Z,67.7
2019-06-08T19:57:32.096Z,68
2019-06-08T19:58:33.498Z,67.2
2019-06-08T20:00:35.133Z,66.7